Terminal Aerodrome Forecast
Issued by NWS Cleveland, OH

Home | Current Version | Previous Version | Graphics & Text | Print | Product List | Glossary Off
Versions: 1 2 3 4 5 6 7 8 9 10 11 12 13 14 15 16 17 18

000
FTUS41 KCLE 100651 AAA
TAFYNG
TAF AMD
KYNG 100651Z 1007/1106 25013KT 6SM -SHSN OVC015
      TEMPO 1007/1010 5SM -FZDZ BKN010
     FM101600 24015G24KT P6SM BKN030
     FM102000 24012G20KT P6SM OVC050
     FM110300 25012KT P6SM VCSH OVC020=

USA.gov is the U.S. government's official web portal to all federal, state and local government web resources and services.